createdAt,value
2018-01-26T00:00:59.688Z,15.60
2018-01-26T00:02:02.154Z,16.87
2018-01-26T00:03:04.687Z,16.30
2018-01-26T00:04:07.150Z,14.65
2018-01-26T00:05:09.615Z,14.48
2018-01-26T00:06:12.080Z,16.45
2018-01-26T00:07:14.596Z,16.25
2018-01-26T00:08:17.181Z,14.05
2018-01-26T00:09:19.646Z,16.00
2018-01-26T00:10:22.129Z,13.77
2018-01-26T00:11:24.604Z,13.95
2018-01-26T00:12:27.085Z,15.35
2018-01-26T00:13:29.555Z,16.50
2018-01-26T00:14:32.022Z,15.75
2018-01-26T00:15:34.487Z,14.68
2018-01-26T00:16:37.021Z,17.80
2018-01-26T00:17:39.501Z,13.65
2018-01-26T00:18:41.974Z,13.93
2018-01-26T00:19:44.455Z,15.32
2018-01-26T00:20:46.918Z,15.88
2018-01-26T00:21:49.393Z,15.13
2018-01-26T00:22:51.858Z,14.70
2018-01-26T00:23:54.322Z,14.70
2018-01-26T00:24:56.801Z,13.13
2018-01-26T00:25:59.281Z,13.15
2018-01-26T00:27:01.758Z,15.27
2018-01-26T00:28:04.248Z,14.10
2018-01-26T00:29:06.733Z,12.98
2018-01-26T00:30:09.212Z,13.50
2018-01-26T00:31:11.674Z,14.07
2018-01-26T00:32:14.138Z,13.00
2018-01-26T00:33:16.620Z,13.20
2018-01-26T00:34:19.091Z,12.70
2018-01-26T00:35:21.555Z,13.50
2018-01-26T00:36:24.028Z,14.07
2018-01-26T00:37:26.513Z,11.88
2018-01-26T00:38:28.979Z,10.77
2018-01-26T00:39:31.443Z,11.85
2018-01-26T00:40:33.907Z,12.50
2018-01-26T00:41:36.370Z,11.93
2018-01-26T00:42:38.859Z,12.05
2018-01-26T00:43:41.341Z,11.20
2018-01-26T00:44:43.806Z,13.05
2018-01-26T00:45:46.289Z,12.52
2018-01-26T00:46:48.764Z,11.80
2018-01-26T00:47:51.248Z,13.23
2018-01-26T00:48:53.710Z,12.63
2018-01-26T00:49:56.188Z,13.00
2018-01-26T00:50:58.668Z,12.98
2018-01-26T00:52:01.134Z,13.50
2018-01-26T00:53:03.608Z,14.35
2018-01-26T00:54:06.094Z,14.45
2018-01-26T00:55:08.587Z,13.35
2018-01-26T00:56:11.068Z,14.25
2018-01-26T00:57:13.534Z,13.65
2018-01-26T00:58:16.009Z,13.15
2018-01-26T00:59:18.493Z,13.88
2018-01-26T01:00:20.969Z,13.52
2018-01-26T01:01:23.446Z,13.35
2018-01-26T01:02:25.916Z,13.05
2018-01-26T01:03:28.380Z,14.30
2018-01-26T01:04:30.846Z,13.20
2018-01-26T01:05:33.325Z,13.07
2018-01-26T01:06:35.802Z,15.35
2018-01-26T01:07:38.267Z,14.52
2018-01-26T01:08:40.741Z,13.70
2018-01-26T01:09:43.221Z,15.02
2018-01-26T01:10:45.708Z,14.40
2018-01-26T01:11:48.182Z,14.65
2018-01-26T01:12:50.646Z,14.93
2018-01-26T01:13:53.126Z,13.68
2018-01-26T01:14:55.596Z,14.80
2018-01-26T01:15:58.061Z,13.98
2018-01-26T01:17:00.549Z,14.43
2018-01-26T01:18:03.015Z,15.07
2018-01-26T01:19:05.488Z,16.30
2018-01-26T01:20:07.976Z,14.93
2018-01-26T01:21:10.439Z,15.23
2018-01-26T01:22:12.912Z,15.50
2018-01-26T01:23:15.383Z,14.75
2018-01-26T01:24:17.859Z,15.55
2018-01-26T01:25:20.326Z,14.95
2018-01-26T01:26:22.800Z,14.35
2018-01-26T01:27:25.263Z,13.93
2018-01-26T01:28:27.747Z,14.05
2018-01-26T01:29:30.228Z,13.43
2018-01-26T01:30:32.704Z,14.02
2018-01-26T01:31:35.166Z,14.95
2018-01-26T01:32:37.631Z,14.90
2018-01-26T01:33:40.096Z,14.75
2018-01-26T01:34:42.581Z,14.13
2018-01-26T01:35:45.046Z,15.52
2018-01-26T01:36:47.511Z,13.68
2018-01-26T01:37:50.206Z,16.12
2018-01-26T01:38:52.671Z,15.13
2018-01-26T01:39:55.153Z,14.63
2018-01-26T01:40:57.614Z,15.38
2018-01-26T01:42:00.079Z,14.95
2018-01-26T01:43:02.558Z,15.15
2018-01-26T01:44:05.019Z,14.05
2018-01-26T01:45:07.483Z,15.25
2018-01-26T01:46:09.951Z,14.85
2018-01-26T01:47:12.429Z,13.95
2018-01-26T01:48:15.393Z,15.10
2018-01-26T01:49:17.876Z,14.48
2018-01-26T01:50:20.356Z,16.17
2018-01-26T01:51:22.844Z,16.00
2018-01-26T01:52:25.322Z,15.48
2018-01-26T01:53:27.795Z,16.00
2018-01-26T01:54:30.263Z,16.17
2018-01-26T01:55:32.742Z,16.10
2018-01-26T01:56:35.226Z,15.85
2018-01-26T01:57:37.709Z,16.65
2018-01-26T01:58:40.175Z,16.98
2018-01-26T01:59:42.639Z,15.77
2018-01-26T02:00:45.107Z,16.20
2018-01-26T02:01:47.585Z,14.95
2018-01-26T02:02:50.060Z,14.87
2018-01-26T02:03:52.537Z,14.80
2018-01-26T02:04:55.017Z,14.95
2018-01-26T02:05:57.474Z,15.30
2018-01-26T02:06:59.960Z,16.17
2018-01-26T02:08:02.431Z,15.60
2018-01-26T02:09:04.909Z,14.95
2018-01-26T02:10:07.374Z,16.05
2018-01-26T02:11:09.842Z,15.40
2018-01-26T02:12:12.329Z,15.95
2018-01-26T02:13:14.792Z,15.52
2018-01-26T02:14:17.255Z,14.32
2018-01-26T02:15:19.742Z,15.65
2018-01-26T02:16:22.217Z,14.05
2018-01-26T02:17:24.687Z,16.20
2018-01-26T02:18:27.155Z,15.70
2018-01-26T02:19:29.622Z,15.23
2018-01-26T02:20:32.100Z,14.52
2018-01-26T02:21:34.570Z,14.50
2018-01-26T02:22:37.046Z,14.38
2018-01-26T02:23:39.513Z,14.82
2018-01-26T02:24:41.988Z,13.77
2018-01-26T02:25:44.472Z,14.82
2018-01-26T02:26:46.938Z,15.48
2018-01-26T02:27:49.403Z,15.52
2018-01-26T02:28:51.861Z,14.20
2018-01-26T02:29:54.325Z,15.00
2018-01-26T02:30:56.787Z,15.70
2018-01-26T02:31:59.254Z,13.65
2018-01-26T02:33:01.734Z,15.13
2018-01-26T02:34:04.209Z,14.02
2018-01-26T02:35:06.674Z,14.38
2018-01-26T02:36:09.164Z,14.57
2018-01-26T02:37:11.645Z,15.30
2018-01-26T02:38:14.111Z,13.60
2018-01-26T02:39:16.570Z,14.43
2018-01-26T02:40:19.035Z,16.40
2018-01-26T02:41:21.503Z,15.02
2018-01-26T02:42:23.976Z,15.85
2018-01-26T02:43:26.443Z,16.08
2018-01-26T02:44:28.911Z,14.95
2018-01-26T02:45:31.380Z,15.82
2018-01-26T02:46:33.847Z,15.63
2018-01-26T02:47:36.310Z,15.65
2018-01-26T02:48:38.788Z,16.73
2018-01-26T02:49:41.277Z,15.07
2018-01-26T02:50:43.747Z,16.55
2018-01-26T02:51:46.211Z,14.55
2018-01-26T02:52:48.692Z,15.55
2018-01-26T02:53:51.170Z,15.90
2018-01-26T02:54:53.657Z,16.58
2018-01-26T02:55:56.119Z,15.70
2018-01-26T02:56:58.586Z,15.50
2018-01-26T02:58:01.051Z,14.95
2018-01-26T02:59:03.515Z,15.00
2018-01-26T03:00:06.002Z,14.18
2018-01-26T03:01:08.504Z,14.60
2018-01-26T03:02:11.011Z,15.43
2018-01-26T03:03:13.483Z,13.30
2018-01-26T03:04:15.947Z,14.38
2018-01-26T03:05:18.470Z,13.82
2018-01-26T03:06:21.004Z,14.05
2018-01-26T03:07:23.513Z,15.80
2018-01-26T03:08:25.982Z,14.40
2018-01-26T03:09:28.472Z,13.48
2018-01-26T03:10:30.945Z,13.75
2018-01-26T03:11:33.425Z,13.85
2018-01-26T03:12:35.888Z,12.68
2018-01-26T03:13:38.373Z,12.90
2018-01-26T03:14:40.835Z,13.75
2018-01-26T03:15:43.297Z,13.60
2018-01-26T03:16:45.773Z,14.13
2018-01-26T03:17:48.242Z,14.15
2018-01-26T03:18:50.717Z,13.32
2018-01-26T03:19:53.196Z,14.35
2018-01-26T03:20:55.666Z,14.07
2018-01-26T03:21:58.164Z,13.70
2018-01-26T03:23:00.634Z,13.82
2018-01-26T03:24:03.122Z,13.80
2018-01-26T03:25:05.604Z,13.40
2018-01-26T03:26:08.066Z,13.23
2018-01-26T03:27:10.544Z,14.20
2018-01-26T03:28:13.033Z,12.52
2018-01-26T03:29:15.498Z,12.63
2018-01-26T03:30:17.990Z,13.80
2018-01-26T03:31:20.465Z,13.65
2018-01-26T03:32:22.934Z,12.93
2018-01-26T03:33:25.399Z,14.20
2018-01-26T03:34:27.867Z,14.63
2018-01-26T03:35:30.339Z,13.40
2018-01-26T03:36:32.802Z,14.07
2018-01-26T03:37:35.280Z,14.75
2018-01-26T03:38:37.760Z,14.57
2018-01-26T03:39:40.222Z,15.45
2018-01-26T03:40:42.696Z,15.38
2018-01-26T03:41:45.158Z,14.15
2018-01-26T03:42:47.634Z,14.63
2018-01-26T03:43:50.102Z,15.75
2018-01-26T03:44:52.571Z,14.65
2018-01-26T03:45:55.034Z,16.98
2018-01-26T03:46:57.498Z,15.82
2018-01-26T03:47:59.962Z,15.13
2018-01-26T03:49:02.449Z,14.65
2018-01-26T03:50:04.911Z,13.85
2018-01-26T03:51:07.379Z,16.58
2018-01-26T03:52:10.101Z,15.40
2018-01-26T03:53:13.311Z,13.25
2018-01-26T03:54:15.789Z,16.10
2018-01-26T03:55:18.304Z,16.02
2018-01-26T03:56:20.786Z,15.70
2018-01-26T03:57:23.255Z,17.87
2018-01-26T03:58:25.760Z,15.85
2018-01-26T03:59:28.241Z,16.05
2018-01-26T04:00:30.719Z,16.98
2018-01-26T04:01:33.186Z,15.50
2018-01-26T04:02:35.665Z,16.10
2018-01-26T04:03:38.150Z,15.50
2018-01-26T04:04:40.626Z,15.27
2018-01-26T04:05:43.105Z,15.63
2018-01-26T04:06:45.571Z,15.07
2018-01-26T04:07:48.053Z,15.15
2018-01-26T04:08:50.539Z,16.55
2018-01-26T04:09:53.002Z,15.38
2018-01-26T04:10:55.466Z,16.60
2018-01-26T04:11:57.949Z,15.68
2018-01-26T04:13:00.435Z,16.17
2018-01-26T04:14:02.915Z,14.77
2018-01-26T04:15:05.397Z,16.85
2018-01-26T04:16:07.880Z,16.05
2018-01-26T04:17:10.357Z,18.65
2018-01-26T04:18:12.837Z,19.55
2018-01-26T04:19:15.322Z,20.95
2018-01-26T04:20:17.786Z,20.40
2018-01-26T04:21:20.262Z,19.17
2018-01-26T04:22:22.744Z,18.80
2018-01-26T04:23:25.210Z,16.52
2018-01-26T04:24:27.712Z,16.17
2018-01-26T04:25:30.194Z,16.35
2018-01-26T04:26:32.661Z,16.83
2018-01-26T04:27:35.145Z,17.10
2018-01-26T04:28:37.629Z,16.23
2018-01-26T04:29:40.106Z,15.57
2018-01-26T04:30:42.591Z,16.95
2018-01-26T04:31:45.069Z,16.62
2018-01-26T04:32:47.568Z,16.23
2018-01-26T04:33:50.040Z,17.05
2018-01-26T04:34:52.512Z,17.35
2018-01-26T04:35:54.979Z,17.58
2018-01-26T04:36:57.456Z,17.85
2018-01-26T04:37:59.937Z,17.35
2018-01-26T04:39:02.403Z,17.60
2018-01-26T04:40:04.928Z,16.48
2018-01-26T04:41:07.424Z,16.85
2018-01-26T04:42:09.899Z,16.23
2018-01-26T04:43:12.366Z,17.45
2018-01-26T04:44:14.850Z,17.10
2018-01-26T04:45:17.314Z,17.45
2018-01-26T04:46:19.775Z,16.55
2018-01-26T04:47:22.277Z,16.15
2018-01-26T04:48:24.738Z,18.12
2018-01-26T04:49:27.213Z,17.73
2018-01-26T04:50:29.702Z,18.90
2018-01-26T04:51:32.181Z,19.10
2018-01-26T04:52:34.660Z,17.85
2018-01-26T04:53:37.140Z,19.95
2018-01-26T04:54:39.632Z,18.70
2018-01-26T04:55:42.116Z,17.17
2018-01-26T04:56:44.587Z,17.75
2018-01-26T04:57:47.082Z,16.92
2018-01-26T04:58:49.547Z,16.95
2018-01-26T04:59:52.124Z,17.70
2018-01-26T05:00:54.678Z,17.67
2018-01-26T05:01:57.150Z,16.77
2018-01-26T05:02:59.652Z,16.90
2018-01-26T05:04:02.146Z,16.60
2018-01-26T05:05:04.628Z,17.10
2018-01-26T05:06:07.095Z,17.00
2018-01-26T05:07:09.581Z,17.17
2018-01-26T05:08:12.058Z,18.35
2018-01-26T05:09:14.536Z,17.35
2018-01-26T05:10:17.012Z,18.35
2018-01-26T05:11:19.496Z,18.35
2018-01-26T05:12:21.976Z,18.27
2018-01-26T05:13:24.452Z,18.23
2018-01-26T05:14:26.933Z,16.92
2018-01-26T05:15:29.453Z,17.83
2018-01-26T05:16:31.936Z,17.55
2018-01-26T05:17:34.425Z,17.98
2018-01-26T05:18:36.914Z,16.58
2018-01-26T05:19:39.378Z,16.90
2018-01-26T05:20:41.873Z,18.33
2018-01-26T05:21:44.347Z,17.45
2018-01-26T05:22:46.829Z,17.33
2018-01-26T05:23:49.318Z,15.88
2018-01-26T05:24:51.798Z,16.50
2018-01-26T05:25:54.294Z,15.13
2018-01-26T05:26:56.768Z,16.05
2018-01-26T05:27:59.244Z,15.30
2018-01-26T05:29:01.757Z,17.10
2018-01-26T05:30:04.198Z,16.33
2018-01-26T05:31:06.770Z,16.80
2018-01-26T05:32:09.237Z,16.10
2018-01-26T05:33:11.703Z,16.30
2018-01-26T05:34:14.246Z,15.82
2018-01-26T05:35:16.806Z,14.32
2018-01-26T05:36:19.266Z,15.48
2018-01-26T05:37:21.748Z,14.35
2018-01-26T05:38:24.234Z,16.15
2018-01-26T05:39:26.703Z,15.43
2018-01-26T05:40:29.184Z,16.10
2018-01-26T05:41:31.669Z,14.82
2018-01-26T05:42:34.148Z,16.12
2018-01-26T05:43:36.620Z,13.52
2018-01-26T05:44:39.088Z,14.63
2018-01-26T05:45:41.572Z,16.48
2018-01-26T05:46:44.043Z,14.73
2018-01-26T05:47:46.524Z,14.00
2018-01-26T05:48:48.990Z,13.20
2018-01-26T05:49:51.503Z,14.80
2018-01-26T05:50:53.978Z,14.30
2018-01-26T05:51:56.466Z,14.80
2018-01-26T05:52:58.935Z,14.65
2018-01-26T05:54:01.412Z,14.65
2018-01-26T05:55:03.908Z,13.62
2018-01-26T05:56:06.408Z,14.82
2018-01-26T05:57:08.889Z,13.25
2018-01-26T05:58:11.354Z,13.43
2018-01-26T05:59:13.828Z,14.30
2018-01-26T06:00:16.308Z,13.73
2018-01-26T06:01:18.775Z,13.15
2018-01-26T06:02:21.274Z,13.73
2018-01-26T06:03:23.742Z,14.10
2018-01-26T06:04:26.207Z,13.43
2018-01-26T06:05:28.689Z,15.88
2018-01-26T06:06:31.168Z,13.55
2018-01-26T06:07:33.626Z,14.23
2018-01-26T06:08:36.104Z,14.73
2018-01-26T06:09:38.580Z,14.13
2018-01-26T06:10:41.046Z,14.95
2018-01-26T06:11:43.524Z,13.50
2018-01-26T06:12:46.100Z,14.05
2018-01-26T06:13:48.760Z,13.80
2018-01-26T06:14:51.232Z,13.93
2018-01-26T06:15:53.716Z,14.30
2018-01-26T06:16:56.192Z,12.80
2018-01-26T06:17:58.664Z,13.57
2018-01-26T06:19:01.130Z,13.85
2018-01-26T06:20:03.606Z,14.30
2018-01-26T06:21:06.090Z,13.18
2018-01-26T06:22:08.554Z,13.27
2018-01-26T06:23:11.018Z,12.68
2018-01-26T06:24:13.483Z,13.23
2018-01-26T06:25:15.946Z,12.13
2018-01-26T06:26:18.424Z,12.52
2018-01-26T06:27:20.933Z,11.73
2018-01-26T06:28:23.400Z,12.93
2018-01-26T06:29:25.886Z,13.95
2018-01-26T06:30:28.346Z,12.85
2018-01-26T06:31:30.950Z,13.30
2018-01-26T06:32:33.425Z,12.73
2018-01-26T06:33:35.971Z,12.90
2018-01-26T06:34:38.434Z,12.48
2018-01-26T06:35:40.909Z,13.43
2018-01-26T06:36:43.366Z,12.88
2018-01-26T06:37:45.831Z,13.82
2018-01-26T06:38:48.290Z,13.13
2018-01-26T06:39:50.762Z,13.90
2018-01-26T06:40:53.277Z,14.63
2018-01-26T06:41:55.744Z,14.90
2018-01-26T06:42:58.229Z,14.38
2018-01-26T06:44:00.690Z,13.15
2018-01-26T06:45:03.169Z,13.57
2018-01-26T06:46:05.666Z,12.60
2018-01-26T06:47:23.219Z,12.60
2018-01-26T06:48:25.840Z,12.63
2018-01-26T06:49:28.324Z,12.60
2018-01-26T06:50:30.825Z,11.40
2018-01-26T06:51:33.381Z,13.65
2018-01-26T06:52:35.874Z,12.90
2018-01-26T06:53:38.363Z,13.82
2018-01-26T06:54:41.055Z,13.90
2018-01-26T06:55:43.532Z,13.07
2018-01-26T06:56:45.998Z,11.15
2018-01-26T06:57:48.544Z,11.85
2018-01-26T06:58:51.009Z,13.40
2018-01-26T06:59:53.484Z,12.27
2018-01-26T07:00:55.971Z,12.25
2018-01-26T07:01:58.434Z,12.68
2018-01-26T07:03:00.909Z,14.75
2018-01-26T07:04:03.389Z,14.90
2018-01-26T07:05:05.891Z,14.65
2018-01-26T07:06:08.441Z,16.10
2018-01-26T07:07:10.916Z,13.07
2018-01-26T07:08:13.396Z,15.82
2018-01-26T07:09:15.868Z,15.23
2018-01-26T07:10:18.374Z,13.62
2018-01-26T07:11:20.875Z,13.73
2018-01-26T07:12:23.330Z,14.23
2018-01-26T07:13:25.808Z,14.85
2018-01-26T07:14:28.289Z,13.90
2018-01-26T07:15:30.763Z,14.93
2018-01-26T07:16:33.277Z,14.18
2018-01-26T07:17:35.762Z,14.57
2018-01-26T07:18:38.260Z,14.25
2018-01-26T07:19:40.799Z,14.32
2018-01-26T07:20:43.285Z,14.25
2018-01-26T07:21:45.779Z,14.18
2018-01-26T07:22:48.265Z,13.98
2018-01-26T07:23:50.754Z,12.88
2018-01-26T07:24:53.228Z,14.15
2018-01-26T07:25:55.718Z,14.18
2018-01-26T07:26:58.206Z,13.90
2018-01-26T07:28:00.685Z,12.73
2018-01-26T07:29:03.227Z,12.30
2018-01-26T07:30:05.699Z,12.85
2018-01-26T07:31:08.449Z,13.85
2018-01-26T07:32:10.930Z,12.75
2018-01-26T07:33:13.437Z,12.55
2018-01-26T07:34:16.018Z,12.00
2018-01-26T07:35:18.496Z,12.20
2018-01-26T07:36:20.967Z,12.55
2018-01-26T07:37:23.470Z,13.50
2018-01-26T07:38:25.953Z,13.43
2018-01-26T07:39:28.504Z,11.90
2018-01-26T07:40:30.994Z,12.98
2018-01-26T07:41:33.463Z,12.68
2018-01-26T07:42:35.931Z,13.15
2018-01-26T07:43:38.413Z,13.48
2018-01-26T07:44:40.883Z,12.98
2018-01-26T07:45:43.345Z,13.07
2018-01-26T07:46:45.820Z,12.55
2018-01-26T07:47:48.297Z,13.95
2018-01-26T07:48:50.756Z,12.35
2018-01-26T07:49:53.236Z,12.77
2018-01-26T07:50:55.712Z,11.75
2018-01-26T07:51:58.193Z,12.50
2018-01-26T07:53:00.659Z,12.23
2018-01-26T07:54:03.136Z,13.52
2018-01-26T07:55:05.603Z,12.82
2018-01-26T07:56:08.085Z,12.73
2018-01-26T07:57:10.559Z,11.43
2018-01-26T07:58:13.040Z,12.45
2018-01-26T07:59:15.532Z,13.18
2018-01-26T08:00:18.023Z,13.30
2018-01-26T08:01:20.580Z,12.05
2018-01-26T08:02:23.043Z,12.70
2018-01-26T08:03:25.578Z,13.48
2018-01-26T08:04:28.058Z,13.48
2018-01-26T08:05:30.584Z,11.65
2018-01-26T08:06:33.038Z,12.55
2018-01-26T08:07:35.516Z,12.25
2018-01-26T08:08:37.996Z,12.37
2018-01-26T08:09:40.475Z,11.93
2018-01-26T08:10:42.938Z,12.37
2018-01-26T08:11:45.513Z,11.40
2018-01-26T08:12:47.980Z,10.70
2018-01-26T08:13:50.466Z,11.75
2018-01-26T08:14:53.021Z,11.25
2018-01-26T08:15:55.498Z,11.25
2018-01-26T08:16:57.981Z,12.37
2018-01-26T08:18:00.462Z,10.55
2018-01-26T08:19:02.938Z,10.98
2018-01-26T08:20:05.400Z,11.07
2018-01-26T08:21:07.922Z,10.35
2018-01-26T08:22:10.385Z,11.02
2018-01-26T08:23:12.849Z,11.32
2018-01-26T08:24:15.328Z,11.05
2018-01-26T08:25:17.794Z,10.18
2018-01-26T08:26:20.257Z,11.63
2018-01-26T08:27:22.739Z,11.02
2018-01-26T08:28:25.199Z,12.13
2018-01-26T08:29:27.670Z,11.85
2018-01-26T08:30:30.152Z,11.75
2018-01-26T08:31:32.637Z,11.05
2018-01-26T08:32:35.115Z,11.05
2018-01-26T08:33:37.589Z,11.35
2018-01-26T08:34:40.077Z,11.10
2018-01-26T08:35:42.552Z,10.70
2018-01-26T08:36:45.029Z,11.07
2018-01-26T08:37:47.496Z,10.60
2018-01-26T08:38:49.972Z,11.60
2018-01-26T08:39:52.448Z,10.80
2018-01-26T08:40:54.932Z,10.75
2018-01-26T08:41:57.445Z,11.07
2018-01-26T08:42:59.914Z,10.93
2018-01-26T08:44:02.391Z,11.50
2018-01-26T08:45:04.878Z,12.70
2018-01-26T08:46:07.385Z,10.10
2018-01-26T08:47:09.865Z,12.30
2018-01-26T08:48:12.359Z,11.15
2018-01-26T08:49:14.837Z,10.25
2018-01-26T08:50:17.324Z,10.23
2018-01-26T08:51:19.791Z,10.55
2018-01-26T08:52:22.268Z,10.82
2018-01-26T08:53:24.748Z,11.48
2018-01-26T08:54:27.256Z,11.32
2018-01-26T08:55:29.733Z,11.32
2018-01-26T08:56:32.206Z,11.57
2018-01-26T08:57:34.687Z,10.85
2018-01-26T08:58:37.151Z,11.20
2018-01-26T08:59:39.633Z,10.15
2018-01-26T09:00:42.100Z,10.60
2018-01-26T09:01:44.570Z,10.18
2018-01-26T09:02:47.065Z,11.55
2018-01-26T09:03:49.545Z,10.73
2018-01-26T09:04:52.014Z,11.50
2018-01-26T09:05:54.497Z,10.18
2018-01-26T09:06:57.007Z,10.20
2018-01-26T09:07:59.484Z,10.20
2018-01-26T09:09:02.013Z,10.68
2018-01-26T09:10:04.489Z,10.93
2018-01-26T09:11:07.007Z,9.60
2018-01-26T09:12:09.484Z,10.10
2018-01-26T09:13:11.962Z,10.63
2018-01-26T09:14:14.432Z,9.57
2018-01-26T09:15:16.890Z,10.45
2018-01-26T09:16:19.347Z,10.15
2018-01-26T09:17:21.820Z,9.55
2018-01-26T09:18:24.274Z,9.45
2018-01-26T09:19:26.757Z,10.13
2018-01-26T09:20:29.236Z,9.35
2018-01-26T09:21:31.709Z,9.20
2018-01-26T09:22:34.193Z,9.73
2018-01-26T09:23:36.666Z,10.35
2018-01-26T09:24:39.130Z,10.60
2018-01-26T09:25:41.598Z,11.10
2018-01-26T09:26:44.092Z,10.77
2018-01-26T09:27:46.550Z,8.93
2018-01-26T09:28:49.011Z,8.40
2018-01-26T09:29:51.466Z,9.63
2018-01-26T09:30:53.930Z,10.80
2018-01-26T09:31:56.437Z,10.25
2018-01-26T09:32:58.909Z,9.95
2018-01-26T09:34:01.407Z,10.10
2018-01-26T09:35:03.883Z,9.70
2018-01-26T09:36:06.357Z,10.05
2018-01-26T09:37:08.839Z,9.93
2018-01-26T09:38:11.300Z,9.70
2018-01-26T09:39:13.781Z,10.23
2018-01-26T09:40:16.246Z,9.18
2018-01-26T09:41:18.714Z,9.95
2018-01-26T09:42:21.205Z,9.30
2018-01-26T09:43:23.681Z,9.43
2018-01-26T09:44:26.153Z,9.63
2018-01-26T09:45:28.651Z,9.00
2018-01-26T09:46:31.114Z,8.98
2018-01-26T09:47:33.613Z,10.75
2018-01-26T09:48:36.070Z,9.43
2018-01-26T09:49:38.555Z,9.88
2018-01-26T09:50:41.029Z,9.43
2018-01-26T09:51:43.513Z,9.10
2018-01-26T09:52:45.991Z,9.80
2018-01-26T09:53:48.454Z,10.13
2018-01-26T09:54:50.973Z,9.73
2018-01-26T09:55:53.448Z,10.52
2018-01-26T09:56:55.919Z,10.57
2018-01-26T09:57:58.419Z,9.85
2018-01-26T09:59:00.940Z,10.60
2018-01-26T10:00:03.427Z,10.20
2018-01-26T10:01:05.929Z,10.20
2018-01-26T10:02:08.417Z,10.80
2018-01-26T10:03:10.906Z,10.43
2018-01-26T10:04:13.387Z,9.65
2018-01-26T10:05:15.873Z,10.73
2018-01-26T10:06:18.419Z,10.73
2018-01-26T10:07:20.883Z,10.40
2018-01-26T10:08:23.361Z,9.30
2018-01-26T10:09:25.838Z,9.55
2018-01-26T10:10:28.321Z,11.52
2018-01-26T10:11:30.787Z,9.50
2018-01-26T10:12:33.250Z,9.48
2018-01-26T10:13:35.738Z,9.90
2018-01-26T10:14:38.208Z,9.63
2018-01-26T10:15:40.695Z,8.75
2018-01-26T10:16:43.177Z,9.13
2018-01-26T10:17:45.657Z,8.98
2018-01-26T10:18:48.219Z,9.55
2018-01-26T10:19:50.682Z,8.38
2018-01-26T10:20:53.153Z,9.80
2018-01-26T10:21:55.630Z,8.68
2018-01-26T10:22:58.100Z,9.10
2018-01-26T10:24:00.617Z,9.98
2018-01-26T10:25:03.074Z,8.50
2018-01-26T10:26:05.536Z,8.30
2018-01-26T10:27:07.994Z,8.70
2018-01-26T10:28:10.472Z,11.65
2018-01-26T10:29:13.057Z,9.32
2018-01-26T10:30:15.514Z,9.38
2018-01-26T10:31:17.993Z,10.20
2018-01-26T10:32:20.455Z,9.38
2018-01-26T10:33:22.926Z,9.55
2018-01-26T10:34:25.415Z,9.50
2018-01-26T10:35:28.052Z,9.13
2018-01-26T10:36:30.525Z,9.80
2018-01-26T10:37:32.987Z,10.27
2018-01-26T10:38:36.334Z,10.20
2018-01-26T10:39:38.815Z,9.48
2018-01-26T10:40:41.289Z,9.75
2018-01-26T10:41:44.246Z,10.10
2018-01-26T10:42:46.756Z,9.45
2018-01-26T10:43:49.223Z,10.40
2018-01-26T10:44:51.709Z,9.55
2018-01-26T10:45:54.189Z,10.93
2018-01-26T10:46:56.700Z,11.27
2018-01-26T10:47:59.162Z,10.25
2018-01-26T10:49:01.652Z,9.80
2018-01-26T10:50:04.166Z,9.98
2018-01-26T10:51:06.651Z,9.85
2018-01-26T10:52:09.138Z,10.85
2018-01-26T10:53:11.635Z,10.02
2018-01-26T10:54:14.150Z,9.75
2018-01-26T10:55:16.690Z,10.43
2018-01-26T10:56:19.210Z,10.40
2018-01-26T10:57:21.750Z,10.52
2018-01-26T10:58:24.259Z,9.65
2018-01-26T10:59:26.727Z,15.82
2018-01-26T11:00:29.218Z,11.77
2018-01-26T11:01:31.691Z,15.40
2018-01-26T11:02:34.158Z,14.38
2018-01-26T11:03:36.627Z,10.15
2018-01-26T11:04:39.101Z,14.73
2018-01-26T11:05:41.728Z,11.52
2018-01-26T11:06:44.205Z,11.90
2018-01-26T11:07:46.670Z,10.23
2018-01-26T11:08:49.146Z,12.68
2018-01-26T11:09:51.633Z,19.20
2018-01-26T11:10:54.129Z,24.55
2018-01-26T11:11:56.599Z,15.65
2018-01-26T11:12:59.073Z,29.30
2018-01-26T11:14:01.530Z,18.75
2018-01-26T11:15:04.009Z,19.48
2018-01-26T11:16:06.503Z,23.17
2018-01-26T11:17:08.981Z,35.50
2018-01-26T11:18:11.463Z,20.33
2018-01-26T11:19:14.071Z,12.65
2018-01-26T11:20:16.545Z,11.93
2018-01-26T11:21:19.036Z,14.68
2018-01-26T11:22:21.502Z,12.20
2018-01-26T11:23:24.894Z,11.35
2018-01-26T11:24:27.454Z,9.63
2018-01-26T11:25:29.926Z,10.13
2018-01-26T11:26:32.444Z,11.43
2018-01-26T11:27:34.888Z,11.12
2018-01-26T11:28:37.369Z,10.77
2018-01-26T11:29:39.827Z,9.63
2018-01-26T11:30:42.302Z,8.50
2018-01-26T11:31:44.785Z,8.40
2018-01-26T11:32:47.269Z,9.52
2018-01-26T11:33:49.748Z,10.20
2018-01-26T11:34:52.210Z,7.87
2018-01-26T11:35:54.674Z,8.10
2018-01-26T11:36:57.143Z,10.50
2018-01-26T11:37:59.641Z,9.73
2018-01-26T11:39:02.111Z,8.50
2018-01-26T11:40:04.574Z,9.13
2018-01-26T11:41:07.048Z,8.85
2018-01-26T11:42:09.510Z,7.82
2018-01-26T11:43:11.993Z,5.65
2018-01-26T11:44:14.482Z,5.90
2018-01-26T11:45:16.985Z,5.80
2018-01-26T11:46:19.469Z,6.05
2018-01-26T11:47:21.938Z,5.95
2018-01-26T11:48:24.492Z,6.60
2018-01-26T11:49:26.954Z,5.93
2018-01-26T11:50:29.428Z,6.68
2018-01-26T11:51:31.928Z,6.50
2018-01-26T11:52:34.398Z,7.07
2018-01-26T11:53:36.863Z,8.07
2018-01-26T11:54:39.337Z,6.70
2018-01-26T11:55:41.814Z,7.25
2018-01-26T11:56:44.278Z,6.20
2018-01-26T11:57:46.756Z,6.85
2018-01-26T11:58:49.214Z,8.00
2018-01-26T11:59:51.690Z,6.65
2018-01-26T12:00:54.155Z,5.35
2018-01-26T12:01:56.647Z,5.90
2018-01-26T12:02:59.121Z,6.20
2018-01-26T12:04:01.594Z,6.90
2018-01-26T12:05:04.072Z,6.93
2018-01-26T12:06:06.553Z,5.97
2018-01-26T12:07:09.054Z,6.35
2018-01-26T12:08:11.519Z,5.70
2018-01-26T12:09:13.990Z,5.57
2018-01-26T12:10:16.456Z,7.60
2018-01-26T12:11:18.946Z,7.18
2018-01-26T12:12:21.411Z,6.15
2018-01-26T12:13:23.891Z,7.50
2018-01-26T12:14:26.378Z,7.72
2018-01-26T12:15:28.905Z,6.37
2018-01-26T12:16:31.371Z,7.07
2018-01-26T12:17:33.839Z,7.50
2018-01-26T12:18:36.331Z,5.97
2018-01-26T12:19:38.808Z,7.80
2018-01-26T12:20:41.276Z,7.40
2018-01-26T12:21:43.738Z,7.62
2018-01-26T12:22:46.194Z,7.20
2018-01-26T12:23:48.697Z,7.05
2018-01-26T12:24:51.170Z,8.30
2018-01-26T12:25:53.645Z,6.87
2018-01-26T12:26:56.111Z,7.45
2018-01-26T12:27:58.582Z,6.50
2018-01-26T12:29:01.047Z,7.00
2018-01-26T12:30:03.545Z,6.15
2018-01-26T12:31:06.021Z,6.07
2018-01-26T12:32:08.623Z,6.65
2018-01-26T12:33:11.140Z,6.20
2018-01-26T12:34:13.601Z,6.53
2018-01-26T12:35:16.067Z,5.70
2018-01-26T12:36:18.539Z,6.82
2018-01-26T12:37:21.002Z,6.90
2018-01-26T12:38:23.482Z,6.78
2018-01-26T12:39:25.979Z,5.07
2018-01-26T12:40:28.457Z,6.82
2018-01-26T12:41:30.922Z,6.43
2018-01-26T12:42:33.404Z,5.97
2018-01-26T12:43:35.885Z,6.75
2018-01-26T12:44:38.373Z,6.32
2018-01-26T12:45:40.856Z,6.60
2018-01-26T12:46:43.338Z,7.15
2018-01-26T12:47:45.819Z,6.57
2018-01-26T12:48:48.282Z,5.90
2018-01-26T12:49:50.747Z,6.75
2018-01-26T12:50:53.210Z,5.57
2018-01-26T12:51:55.692Z,6.00
2018-01-26T12:52:58.154Z,6.05
2018-01-26T12:54:00.636Z,6.25
2018-01-26T12:55:03.117Z,6.35
2018-01-26T12:56:05.601Z,5.95
2018-01-26T12:57:08.073Z,6.80
2018-01-26T12:58:10.553Z,7.10
2018-01-26T12:59:13.019Z,7.28
2018-01-26T13:00:15.542Z,6.90
2018-01-26T13:01:18.062Z,7.68
2018-01-26T13:02:20.547Z,6.70
2018-01-26T13:03:23.011Z,6.78
2018-01-26T13:04:25.507Z,7.60
2018-01-26T13:05:27.988Z,8.25
2018-01-26T13:06:30.463Z,7.70
2018-01-26T13:07:32.927Z,8.35
2018-01-26T13:08:35.409Z,7.70
2018-01-26T13:09:37.875Z,7.28
2018-01-26T13:10:40.347Z,8.40
2018-01-26T13:11:42.829Z,7.72
2018-01-26T13:12:45.365Z,6.80
2018-01-26T13:13:47.877Z,7.65
2018-01-26T13:14:50.344Z,7.60
2018-01-26T13:15:52.857Z,7.95
2018-01-26T13:16:55.336Z,8.43
2018-01-26T13:17:57.852Z,8.07
2018-01-26T13:19:00.330Z,7.35
2018-01-26T13:20:02.822Z,7.18
2018-01-26T13:21:05.306Z,6.87
2018-01-26T13:22:07.785Z,7.12
2018-01-26T13:23:10.265Z,7.22
2018-01-26T13:24:12.731Z,7.57
2018-01-26T13:25:15.195Z,7.07
2018-01-26T13:26:17.685Z,6.97
2018-01-26T13:27:20.147Z,6.37
2018-01-26T13:28:22.614Z,7.28
2018-01-26T13:29:25.086Z,7.60
2018-01-26T13:30:27.571Z,7.93
2018-01-26T13:31:30.045Z,6.60